Time;durP1;ratioP1;P1;durP2;ratioP2;P2;SDS_P1;SDS_P2;PMS_P1;PMS_P2;Temp;Humidity;BMP_temperature;BMP_pressure;BME280_temperature;BME280_humidity;BME280_pressure;Samples;Min_cycle;Max_cycle;Signal;HPM_P1;HPM_P2
2023/10/04 00:15:26;;;;;;;2.13;1.10;;;21.40;99.90;;;;;;4579607;19;20025;-71
2023/10/04 00:17:02;;;;;;;2.13;0.90;;;21.40;99.90;;;;;;4592858;19;20017;-72
2023/10/04 00:18:36;;;;;;;1.98;0.75;;;21.10;99.90;;;;;;4592852;19;20040;-71
2023/10/04 00:20:13;;;;;;;1.38;0.80;;;19.60;99.90;;;;;;4592727;19;20009;-71
2023/10/04 00:21:48;;;;;;;2.40;0.95;;;18.80;99.90;;;;;;4592829;19;20011;-71
2023/10/04 00:23:22;;;;;;;2.03;1.00;;;18.30;99.90;;;;;;4592649;19;20002;-71
2023/10/04 00:24:57;;;;;;;1.70;0.70;;;18.10;99.90;;;;;;4592082;19;20010;-71
2023/10/04 00:26:33;;;;;;;3.10;1.33;;;17.90;99.90;;;;;;4592762;19;19999;-71
2023/10/04 00:28:07;;;;;;;1.67;0.98;;;17.90;99.90;;;;;;4592390;19;20384;-72
2023/10/04 00:29:44;;;;;;;1.00;0.63;;;17.80;99.90;;;;;;4592491;19;19998;-71
2023/10/04 00:31:19;;;;;;;1.42;0.80;;;17.70;99.90;;;;;;4592873;19;20011;-71
2023/10/04 00:33:04;;;;;;;1.33;0.80;;;17.60;99.90;;;;;;4592489;19;19998;-71
2023/10/04 00:34:47;;;;;;;2.28;0.70;;;17.60;99.90;;;;;;4591009;19;20010;-71
2023/10/04 00:36:31;;;;;;;1.58;0.90;;;17.60;99.90;;;;;;4592439;19;20014;-71
2023/10/04 00:38:05;;;;;;;1.42;0.68;;;17.50;99.90;;;;;;4592440;19;20003;-71
2023/10/04 00:39:39;;;;;;;1.77;0.90;;;17.50;99.90;;;;;;4592355;19;20007;-71
2023/10/04 00:41:15;;;;;;;1.65;0.82;;;17.50;99.90;;;;;;4592694;19;19998;-70
2023/10/04 00:42:51;;;;;;;1.67;0.80;;;17.50;99.90;;;;;;4592558;19;20003;-71
2023/10/04 00:44:26;;;;;;;2.40;1.00;;;17.60;99.90;;;;;;4590787;19;20006;-71
2023/10/04 00:46:01;;;;;;;3.10;0.95;;;17.90;99.90;;;;;;4592280;19;20011;-71
2023/10/04 00:47:36;;;;;;;2.67;0.70;;;18.30;99.90;;;;;;4592583;19;19995;-71
2023/10/04 00:49:11;;;;;;;2.28;0.82;;;18.60;99.90;;;;;;4591308;19;20006;-71
2023/10/04 00:50:48;;;;;;;2.22;0.80;;;18.80;99.90;;;;;;4591142;19;20003;-70
2023/10/04 00:52:26;;;;;;;1.90;0.90;;;19.00;99.90;;;;;;4590779;19;20025;-71
2023/10/04 00:54:10;;;;;;;3.03;1.20;;;19.20;99.90;;;;;;4592066;19;20025;-71
2023/10/04 00:55:45;;;;;;;3.53;1.45;;;19.40;99.90;;;;;;4590828;19;20006;-71
2023/10/04 00:57:19;;;;;;;3.70;1.10;;;19.50;99.90;;;;;;4591837;19;20066;-71
2023/10/04 00:58:55;;;;;;;2.47;1.00;;;19.50;99.90;;;;;;4591000;19;20054;-71
2023/10/04 01:00:30;;;;;;;2.30;0.90;;;19.60;99.90;;;;;;4591710;19;20069;-71
2023/10/04 01:02:05;;;;;;;2.63;1.10;;;19.70;99.90;;;;;;4592299;19;20050;-71
2023/10/04 01:03:39;;;;;;;3.47;1.17;;;19.80;99.90;;;;;;4592211;19;20002;-71
2023/10/04 01:05:16;;;;;;;3.03;1.25;;;19.80;99.90;;;;;;4591054;19;20006;-71
2023/10/04 01:06:50;;;;;;;1.98;0.85;;;19.90;99.90;;;;;;4591981;19;20010;-71
2023/10/04 01:08:24;;;;;;;4.00;1.15;;;19.90;99.90;;;;;;4591759;19;20003;-71
2023/10/04 01:10:02;;;;;;;4.07;1.30;;;20.00;99.90;;;;;;4591941;19;20018;-71
2023/10/04 01:11:36;;;;;;;3.17;1.27;;;20.00;99.90;;;;;;4591796;19;20002;-71
2023/10/04 01:13:11;;;;;;;3.55;1.13;;;20.00;99.90;;;;;;4590761;19;20059;-71
2023/10/04 01:14:49;;;;;;;4.18;1.40;;;20.10;99.90;;;;;;4590680;19;20034;-71
2023/10/04 01:16:24;;;;;;;2.55;1.27;;;20.00;99.90;;;;;;4592085;19;20013;-71
2023/10/04 01:18:01;;;;;;;4.75;1.30;;;20.10;99.90;;;;;;4591701;19;20425;-71
2023/10/04 01:19:36;;;;;;;3.47;1.00;;;20.10;99.90;;;;;;4590674;19;20007;-71
2023/10/04 01:21:10;;;;;;;2.85;1.02;;;20.10;99.90;;;;;;4591296;19;20070;-71
2023/10/04 01:22:44;;;;;;;3.72;1.20;;;20.10;99.90;;;;;;4591805;19;20010;-71
2023/10/04 01:24:19;;;;;;;3.60;1.30;;;20.10;99.90;;;;;;4596406;19;20011;-71
2023/10/04 01:25:53;;;;;;;3.83;1.15;;;20.20;99.90;;;;;;4596592;19;20010;-71
2023/10/04 01:27:30;;;;;;;3.08;1.38;;;20.20;99.90;;;;;;4596526;19;20062;-71
2023/10/04 01:29:12;;;;;;;2.70;1.15;;;20.20;99.90;;;;;;4594986;19;20021;-71
2023/10/04 01:30:47;;;;;;;1.90;1.23;;;20.20;99.90;;;;;;4596256;19;20010;-71
2023/10/04 01:32:22;;;;;;;3.95;1.17;;;20.20;99.90;;;;;;4596475;19;20006;-71
2023/10/04 01:33:58;;;;;;;3.70;1.33;;;20.20;99.90;;;;;;4596207;19;20024;-71
2023/10/04 01:35:32;;;;;;;2.80;1.08;;;20.20;99.90;;;;;;4594513;19;20006;-71
2023/10/04 01:37:06;;;;;;;2.55;1.05;;;20.30;99.90;;;;;;4596025;19;20097;-71
2023/10/04 01:38:42;;;;;;;3.55;1.10;;;20.30;99.90;;;;;;4596423;19;20310;-71
2023/10/04 01:40:19;;;;;;;3.30;1.45;;;20.30;99.90;;;;;;4594866;19;20300;-71
2023/10/04 01:41:52;;;;;;;4.50;1.40;;;20.30;99.90;;;;;;4595765;19;20448;-71
2023/10/04 01:43:29;;;;;;;4.05;1.40;;;20.30;99.90;;;;;;4595936;19;20002;-72
2023/10/04 01:45:03;;;;;;;2.92;1.23;;;20.30;99.90;;;;;;4594884;19;20410;-72
2023/10/04 01:46:38;;;;;;;3.72;1.55;;;20.30;99.90;;;;;;4595904;19;19994;-71
2023/10/04 01:48:15;;;;;;;4.97;1.27;;;20.30;99.90;;;;;;4595687;19;20006;-71
2023/10/04 01:49:49;;;;;;;3.88;1.55;;;20.30;99.90;;;;;;4595902;19;20019;-71
2023/10/04 01:51:26;;;;;;;3.30;1.17;;;20.30;99.90;;;;;;4596109;19;20003;-71
2023/10/04 01:53:03;;;;;;;3.70;1.30;;;20.30;99.90;;;;;;4595807;19;20006;-71
2023/10/04 01:54:38;;;;;;;3.90;1.90;;;20.30;99.90;;;;;;4595173;19;20003;-71
2023/10/04 01:56:12;;;;;;;6.25;1.83;;;20.30;99.90;;;;;;4595974;19;20080;-71
2023/10/04 01:57:47;;;;;;;2.92;1.17;;;20.30;99.90;;;;;;4595728;19;20029;-71
2023/10/04 01:59:22;;;;;;;3.97;1.40;;;20.30;99.90;;;;;;4595615;19;19995;-72
2023/10/04 02:00:56;;;;;;;5.80;2.13;;;20.30;99.90;;;;;;4595662;19;20007;-72
2023/10/04 02:02:31;;;;;;;4.07;1.58;;;20.30;99.90;;;;;;4595863;19;20069;-71
2023/10/04 02:04:05;;;;;;;4.60;1.60;;;20.30;99.90;;;;;;4595878;19;20081;-72
2023/10/04 02:05:42;;;;;;;4.78;1.48;;;20.30;99.90;;;;;;4593901;19;20014;-73
2023/10/04 02:07:17;;;;;;;3.83;1.42;;;20.20;99.90;;;;;;4594212;19;20045;-72
2023/10/04 02:08:51;;;;;;;4.28;1.60;;;20.30;99.90;;;;;;4594492;19;20005;-73
2023/10/04 02:10:26;;;;;;;4.75;1.70;;;20.30;99.90;;;;;;4595730;19;19998;-73
2023/10/04 02:12:04;;;;;;;5.05;1.45;;;20.30;99.90;;;;;;4595408;19;20010;-73
2023/10/04 02:13:40;;;;;;;5.55;2.13;;;20.40;99.90;;;;;;4595491;19;19999;-73
2023/10/04 02:15:19;;;;;;;5.15;1.75;;;20.40;99.90;;;;;;4593930;19;20010;-72
2023/10/04 02:16:55;;;;;;;4.72;1.35;;;20.40;99.90;;;;;;4595407;19;19999;-73
2023/10/04 02:18:30;;;;;;;6.68;1.60;;;20.40;99.90;;;;;;4593684;19;20366;-73
2023/10/04 02:20:09;;;;;;;6.63;1.88;;;20.40;99.90;;;;;;4593428;19;20809;-73
2023/10/04 02:21:45;;;;;;;4.87;1.57;;;20.40;99.90;;;;;;4592112;19;20002;-73
2023/10/04 02:23:19;;;;;;;5.15;1.70;;;20.40;99.90;;;;;;4592683;19;20511;-73
2023/10/04 02:24:53;;;;;;;5.82;1.63;;;20.40;99.90;;;;;;4592477;19;20007;-72
2023/10/04 02:26:29;;;;;;;3.67;1.40;;;20.40;99.90;;;;;;4593609;19;20007;-73
2023/10/04 02:28:09;;;;;;;5.35;1.70;;;20.40;99.90;;;;;;4593494;19;19999;-73
2023/10/04 02:29:47;;;;;;;5.15;1.83;;;20.40;99.90;;;;;;4593548;19;20361;-73
2023/10/04 02:31:22;;;;;;;4.65;1.30;;;20.40;99.90;;;;;;4593489;19;20017;-73
2023/10/04 02:32:57;;;;;;;6.20;1.63;;;20.40;99.90;;;;;;4591674;19;20006;-73
2023/10/04 02:34:32;;;;;;;3.08;1.30;;;20.40;99.90;;;;;;4592567;19;20013;-73
2023/10/04 02:36:07;;;;;;;4.55;1.58;;;20.40;99.90;;;;;;4594320;19;20006;-73
2023/10/04 02:37:42;;;;;;;5.75;1.33;;;20.50;99.90;;;;;;4594860;19;20092;-73
2023/10/04 02:39:17;;;;;;;5.95;1.73;;;20.50;99.90;;;;;;4595090;19;19999;-73
2023/10/04 02:40:53;;;;;;;7.05;2.30;;;20.60;99.90;;;;;;4594821;19;20417;-73
2023/10/04 02:42:28;;;;;;;4.07;1.20;;;20.60;99.90;;;;;;4594726;19;20006;-73
2023/10/04 02:44:02;;;;;;;4.85;1.80;;;20.60;99.90;;;;;;4595073;19;20021;-73
2023/10/04 02:45:41;;;;;;;5.82;2.05;;;20.70;99.90;;;;;;4593529;19;20023;-73
2023/10/04 02:47:17;;;;;;;5.22;1.70;;;20.70;99.90;;;;;;4593342;19;20006;-73
2023/10/04 02:48:51;;;;;;;5.75;2.15;;;20.70;99.90;;;;;;4593711;19;19999;-73
2023/10/04 02:50:27;;;;;;;7.10;1.90;;;20.70;99.90;;;;;;4594647;19;20305;-73
2023/10/04 02:52:01;;;;;;;5.70;1.60;;;20.80;99.90;;;;;;4594586;19;20009;-73
2023/10/04 02:53:39;;;;;;;6.72;1.50;;;20.80;99.90;;;;;;4594548;19;19998;-73
2023/10/04 02:55:15;;;;;;;4.97;1.60;;;20.80;99.90;;;;;;4592138;19;20018;-73
2023/10/04 02:56:50;;;;;;;5.25;1.55;;;20.80;99.90;;;;;;4594198;19;19998;-73
2023/10/04 02:58:25;;;;;;;4.55;1.55;;;20.80;99.90;;;;;;4594437;19;20002;-73
2023/10/04 03:00:11;;;;;;;4.85;1.48;;;20.80;99.90;;;;;;4594391;19;20010;-72
2023/10/04 03:01:47;;;;;;;5.80;1.70;;;20.80;99.90;;;;;;4593054;19;20010;-73
2023/10/04 03:03:24;;;;;;;4.78;2.00;;;20.80;99.90;;;;;;4594181;19;20002;-73
2023/10/04 03:05:00;;;;;;;6.20;2.03;;;20.80;99.90;;;;;;4592456;19;20010;-73
2023/10/04 03:06:35;;;;;;;3.83;1.50;;;20.80;99.90;;;;;;4594222;19;20006;-73
2023/10/04 03:08:09;;;;;;;3.42;1.50;;;20.90;99.90;;;;;;4594085;19;19999;-73
2023/10/04 03:09:47;;;;;;;6.10;1.75;;;20.80;99.90;;;;;;4594518;19;20371;-73
2023/10/04 03:11:21;;;;;;;3.67;1.52;;;20.90;99.90;;;;;;4594479;19;20006;-73
2023/10/04 03:13:01;;;;;;;5.78;2.35;;;20.90;99.90;;;;;;4594410;19;19999;-73
2023/10/04 03:14:36;;;;;;;5.30;1.73;;;20.90;99.90;;;;;;4593492;19;20014;-73
2023/10/04 03:16:10;;;;;;;8.35;1.70;;;20.80;99.90;;;;;;4594342;19;20378;-73
2023/10/04 03:17:44;;;;;;;4.70;1.60;;;20.90;99.90;;;;;;4594041;19;19999;-72
2023/10/04 03:19:19;;;;;;;6.22;2.05;;;20.80;99.90;;;;;;4594043;19;20062;-73
2023/10/04 03:22:42;;;;;;;7.97;2.00;;;20.80;99.90;;;;;;4593973;19;20315;-73
2023/10/04 03:24:18;;;;;;;4.88;2.00;;;20.80;99.90;;;;;;4594080;19;20430;-73
2023/10/04 03:25:57;;;;;;;5.50;2.10;;;20.80;99.90;;;;;;4593840;19;20015;-73
2023/10/04 03:27:34;;;;;;;3.60;1.63;;;20.80;99.90;;;;;;4592522;19;20006;-73
2023/10/04 03:29:11;;;;;;;6.43;2.22;;;20.80;99.90;;;;;;4592733;19;20449;-73
2023/10/04 03:30:45;;;;;;;4.65;1.77;;;20.80;99.90;;;;;;4594090;19;20414;-73
2023/10/04 03:32:19;;;;;;;4.57;1.23;;;20.70;99.90;;;;;;4593659;19;19999;-72
2023/10/04 03:33:55;;;;;;;3.95;1.65;;;20.70;99.90;;;;;;4593810;19;20022;-72
2023/10/04 03:35:29;;;;;;;4.60;1.60;;;20.80;99.90;;;;;;4592738;19;20007;-73
2023/10/04 03:37:09;;;;;;;4.88;1.88;;;20.80;99.90;;;;;;4593620;19;20077;-72
2023/10/04 03:38:45;;;;;;;5.00;1.60;;;20.80;99.90;;;;;;4593734;19;20017;-72
2023/10/04 03:40:19;;;;;;;5.28;1.58;;;20.80;99.90;;;;;;4592477;19;20003;-73
2023/10/04 03:41:56;;;;;;;3.88;1.80;;;20.80;99.90;;;;;;4593063;19;20040;-73
2023/10/04 03:43:40;;;;;;;5.50;1.70;;;20.80;99.90;;;;;;4593516;19;20010;-72
2023/10/04 03:45:18;;;;;;;7.65;2.40;;;20.70;99.90;;;;;;4592484;19;20372;-73
2023/10/04 03:46:53;;;;;;;4.88;1.88;;;20.80;99.90;;;;;;4592947;19;20453;-73
2023/10/04 03:48:29;;;;;;;6.22;1.98;;;20.80;99.90;;;;;;4593336;19;20029;-72
2023/10/04 03:50:06;;;;;;;5.38;1.90;;;20.80;99.90;;;;;;4593363;19;20307;-72
2023/10/04 03:51:41;;;;;;;5.22;1.60;;;20.80;99.90;;;;;;4593396;19;20023;-73
2023/10/04 03:53:16;;;;;;;3.97;1.77;;;20.90;99.90;;;;;;4593646;19;20493;-72
2023/10/04 03:54:50;;;;;;;5.35;2.13;;;20.90;99.90;;;;;;4592619;19;20310;-73
2023/10/04 03:56:25;;;;;;;4.93;2.17;;;20.90;99.90;;;;;;4593534;19;20468;-73
2023/10/04 03:58:02;;;;;;;5.40;2.20;;;21.00;99.90;;;;;;4593276;19;20002;-73
2023/10/04 03:59:36;;;;;;;5.18;2.10;;;21.00;99.90;;;;;;4593440;19;20002;-72
2023/10/04 04:01:10;;;;;;;4.65;2.40;;;21.00;99.90;;;;;;4593143;19;20005;-72
2023/10/04 04:02:48;;;;;;;3.53;1.80;;;21.00;99.90;;;;;;4591903;19;19999;-72
2023/10/04 04:04:22;;;;;;;7.80;2.20;;;21.10;99.90;;;;;;4591822;19;20013;-72
2023/10/04 04:05:56;;;;;;;7.20;2.20;;;21.10;99.90;;;;;;4592916;19;20005;-70
2023/10/04 04:07:32;;;;;;;3.80;1.80;;;21.10;99.90;;;;;;4593096;19;20318;-72
2023/10/04 04:09:09;;;;;;;4.28;2.45;;;21.10;99.90;;;;;;4592131;19;20298;-73
2023/10/04 04:10:46;;;;;;;6.13;1.70;;;21.10;99.90;;;;;;4591671;19;20006;-73
2023/10/04 04:12:22;;;;;;;3.40;1.73;;;21.10;99.90;;;;;;4592654;19;20022;-73
2023/10/04 04:13:57;;;;;;;6.68;2.53;;;21.10;99.90;;;;;;4592845;19;19998;-73
2023/10/04 04:15:34;;;;;;;6.28;2.10;;;21.10;99.90;;;;;;4591441;19;20014;-73
2023/10/04 04:17:10;;;;;;;5.35;1.85;;;21.10;99.90;;;;;;4592866;19;20007;-72
2023/10/04 04:18:44;;;;;;;4.28;1.92;;;21.10;99.90;;;;;;4592781;19;20439;-72
2023/10/04 04:20:19;;;;;;;6.13;2.33;;;21.10;99.90;;;;;;4592997;19;20062;-71
2023/10/04 04:21:57;;;;;;;7.22;1.92;;;21.20;99.90;;;;;;4592668;19;20007;-72
2023/10/04 04:23:35;;;;;;;5.22;1.80;;;21.20;99.90;;;;;;4592677;19;20006;-72
2023/10/04 04:25:15;;;;;;;5.32;1.85;;;21.20;99.90;;;;;;4592136;19;20003;-72
2023/10/04 04:26:55;;;;;;;6.80;1.65;;;21.20;99.90;;;;;;4592973;19;20013;-72
2023/10/04 04:28:31;;;;;;;3.85;1.60;;;21.20;99.90;;;;;;4592579;19;20035;-72
2023/10/04 04:30:05;;;;;;;7.90;2.53;;;21.20;99.90;;;;;;4592854;19;19998;-72
2023/10/04 04:31:40;;;;;;;5.50;1.67;;;21.30;99.90;;;;;;4591251;19;20038;-72
2023/10/04 04:33:18;;;;;;;5.50;2.10;;;21.40;99.90;;;;;;4592356;19;20001;-72
2023/10/04 04:34:51;;;;;;;4.10;1.48;;;21.40;99.90;;;;;;4591839;19;20081;-72
2023/10/04 04:36:27;;;;;;;4.72;1.60;;;21.40;99.90;;;;;;4592355;19;20066;-72
2023/10/04 04:40:10;;;;;;;4.75;1.55;;;21.60;99.90;;;;;;4590630;19;20014;-72
2023/10/04 04:41:51;;;;;;;6.70;2.05;;;21.60;99.90;;;;;;4591189;19;20017;-72
2023/10/04 04:43:31;;;;;;;4.30;1.80;;;21.70;99.90;;;;;;4590921;19;20006;-72
2023/10/04 04:45:08;;;;;;;4.85;1.83;;;21.70;99.90;;;;;;4591187;19;20041;-72
2023/10/04 04:46:43;;;;;;;5.53;1.60;;;21.70;99.90;;;;;;4592307;19;20006;-72
2023/10/04 04:48:24;;;;;;;5.38;2.13;;;21.80;99.90;;;;;;4591994;19;20021;-72
2023/10/04 04:50:00;;;;;;;5.25;2.13;;;21.80;99.90;;;;;;4591196;19;20007;-72
2023/10/04 04:51:35;;;;;;;5.35;2.50;;;21.80;99.90;;;;;;4590844;19;20313;-72
2023/10/04 04:53:14;;;;;;;5.68;2.20;;;21.90;99.90;;;;;;4591995;19;19998;-72
2023/10/04 04:54:55;;;;;;;6.25;2.10;;;21.90;99.90;;;;;;4591529;19;20322;-72
2023/10/04 04:56:32;;;;;;;5.75;2.05;;;21.90;99.90;;;;;;4590626;19;20018;-72
2023/10/04 04:58:07;;;;;;;4.68;1.80;;;21.90;99.90;;;;;;4589691;19;20388;-72
2023/10/04 04:59:42;;;;;;;5.22;1.85;;;21.90;99.90;;;;;;4591998;19;20005;-72
2023/10/04 05:01:17;;;;;;;5.60;1.85;;;21.80;99.90;;;;;;4591991;19;20007;-72
2023/10/04 05:02:52;;;;;;;4.00;2.00;;;21.80;99.90;;;;;;4592188;19;20009;-72
2023/10/04 05:04:27;;;;;;;4.53;1.70;;;21.80;99.90;;;;;;4591602;19;20009;-72
2023/10/04 05:06:05;;;;;;;6.50;1.83;;;21.80;99.90;;;;;;4592252;19;20039;-72
2023/10/04 05:07:40;;;;;;;4.13;1.95;;;21.80;99.90;;;;;;4592224;19;20524;-72
2023/10/04 05:09:14;;;;;;;4.47;1.70;;;21.80;99.90;;;;;;4591167;19;20010;-72
2023/10/04 05:10:55;;;;;;;3.47;1.70;;;21.80;99.90;;;;;;4592036;19;20006;-72
2023/10/04 05:12:39;;;;;;;4.88;1.63;;;21.70;99.90;;;;;;4590587;19;20011;-72
2023/10/04 05:14:18;;;;;;;3.83;1.63;;;21.70;99.90;;;;;;4591092;19;20058;-72
2023/10/04 05:16:16;;;;;;;3.58;1.30;;;21.70;99.90;;;;;;4590210;19;20014;-72
2023/10/04 05:18:10;;;;;;;7.70;2.30;;;21.60;99.90;;;;;;4588848;19;20015;-72
2023/10/04 05:19:48;;;;;;;5.82;2.05;;;21.60;99.90;;;;;;4588877;19;20441;-72
2023/10/04 05:21:22;;;;;;;5.30;2.10;;;21.60;99.90;;;;;;4590351;19;20009;-72
2023/10/04 05:22:56;;;;;;;4.70;1.90;;;21.60;99.90;;;;;;4591787;19;20010;-72
2023/10/04 05:24:32;;;;;;;6.95;2.15;;;21.60;99.90;;;;;;4591227;19;20010;-72
2023/10/04 05:26:08;;;;;;;4.07;1.80;;;21.50;99.90;;;;;;4590972;19;20029;-72
2023/10/04 05:27:43;;;;;;;6.15;2.33;;;21.50;99.90;;;;;;4591836;19;20013;-72
2023/10/04 05:29:21;;;;;;;6.82;2.35;;;21.50;99.90;;;;;;4590600;19;20434;-72
2023/10/04 05:30:56;;;;;;;5.25;2.33;;;21.50;99.90;;;;;;4591728;19;20033;-72
2023/10/04 05:32:32;;;;;;;7.45;2.72;;;21.40;99.90;;;;;;4591447;19;20100;-72
2023/10/04 05:34:07;;;;;;;6.85;2.55;;;21.40;99.90;;;;;;4591680;19;20006;-72
2023/10/04 05:35:46;;;;;;;8.32;2.20;;;21.40;99.90;;;;;;4590390;19;20003;-72
2023/10/04 05:37:20;;;;;;;8.02;2.55;;;21.40;99.90;;;;;;4591768;19;20426;-72
2023/10/04 05:38:56;;;;;;;8.90;2.65;;;21.40;99.90;;;;;;4591394;19;20023;-72
2023/10/04 05:40:34;;;;;;;6.43;3.15;;;21.30;99.90;;;;;;4591523;19;20433;-72
2023/10/04 05:42:08;;;;;;;5.32;2.70;;;21.30;99.90;;;;;;4590246;19;20080;-72
2023/10/04 05:43:43;;;;;;;4.90;2.72;;;21.30;99.90;;;;;;4590972;19;20007;-72
2023/10/04 05:45:17;;;;;;;6.40;3.03;;;21.30;99.90;;;;;;4587913;19;20330;-72
2023/10/04 05:46:52;;;;;;;4.82;2.53;;;21.30;99.90;;;;;;4589107;19;20630;-72
2023/10/04 05:48:27;;;;;;;7.13;2.53;;;21.30;99.90;;;;;;4589005;19;20007;-72
2023/10/04 05:50:01;;;;;;;9.60;2.60;;;21.30;99.90;;;;;;4589148;19;20006;-73
2023/10/04 05:51:35;;;;;;;5.88;1.85;;;21.30;99.90;;;;;;4589403;19;20002;-72
2023/10/04 05:53:10;;;;;;;6.00;2.53;;;21.30;99.90;;;;;;4589486;19;20025;-72
2023/10/04 05:54:46;;;;;;;4.47;2.00;;;21.20;99.90;;;;;;4588814;19;20368;-72
2023/10/04 05:56:23;;;;;;;5.18;2.20;;;21.20;99.90;;;;;;4589218;19;20002;-72
2023/10/04 05:57:58;;;;;;;4.32;2.10;;;21.20;99.90;;;;;;4589128;19;19995;-72
2023/10/04 05:59:34;;;;;;;7.03;2.20;;;21.20;99.90;;;;;;4589272;19;20005;-72
2023/10/04 06:01:09;;;;;;;6.95;2.08;;;21.20;99.90;;;;;;4589584;19;20374;-72
2023/10/04 06:02:45;;;;;;;5.20;2.20;;;21.20;99.90;;;;;;4589564;19;20483;-72
2023/10/04 06:04:19;;;;;;;5.30;1.60;;;21.20;99.90;;;;;;4590638;19;20009;-72
2023/10/04 06:05:54;;;;;;;5.65;2.35;;;21.20;99.90;;;;;;4590965;19;20002;-72
2023/10/04 06:07:30;;;;;;;7.38;2.13;;;21.10;99.90;;;;;;4591661;19;19998;-72
2023/10/04 06:09:07;;;;;;;5.32;2.05;;;21.10;99.90;;;;;;4589397;19;20314;-72
2023/10/04 06:10:41;;;;;;;6.20;2.15;;;21.10;99.90;;;;;;4595339;19;20006;-72
2023/10/04 06:12:16;;;;;;;5.25;2.25;;;21.10;99.90;;;;;;4594323;19;20073;-72
2023/10/04 06:13:50;;;;;;;5.18;2.50;;;21.10;99.90;;;;;;4594989;19;20035;-72
2023/10/04 06:15:25;;;;;;;6.18;1.80;;;21.10;99.90;;;;;;4593772;19;20015;-72
2023/10/04 06:17:00;;;;;;;6.28;1.85;;;21.10;99.90;;;;;;4594050;19;20003;-73
2023/10/04 06:18:35;;;;;;;6.55;2.40;;;21.10;99.90;;;;;;4594884;19;19994;-72
2023/10/04 06:22:09;;;;;;;4.78;2.13;;;21.10;99.90;;;;;;4593843;19;20006;-72
2023/10/04 06:23:45;;;;;;;7.70;2.28;;;21.00;99.90;;;;;;4593786;19;20007;-73
2023/10/04 06:25:20;;;;;;;5.95;2.45;;;21.00;99.90;;;;;;4593111;19;20010;-72
2023/10/04 06:26:55;;;;;;;5.35;2.22;;;21.10;99.90;;;;;;4594033;19;20014;-72
2023/10/04 06:28:29;;;;;;;8.30;2.92;;;21.10;99.90;;;;;;4594369;19;19998;-73
2023/10/04 06:30:03;;;;;;;5.95;2.00;;;21.10;99.90;;;;;;4595027;19;20400;-73
2023/10/04 06:31:39;;;;;;;5.47;2.17;;;21.10;99.90;;;;;;4595215;19;19999;-73
2023/10/04 06:33:15;;;;;;;5.95;2.60;;;21.10;99.90;;;;;;4594944;19;20002;-73
2023/10/04 06:34:49;;;;;;;5.80;3.08;;;21.00;99.90;;;;;;4594428;19;20002;-73
2023/10/04 06:36:25;;;;;;;7.45;2.30;;;21.00;99.90;;;;;;4594893;19;20357;-72
2023/10/04 06:38:03;;;;;;;6.57;2.58;;;20.90;99.90;;;;;;4594823;19;19998;-73
2023/10/04 06:39:36;;;;;;;6.72;2.63;;;20.90;99.90;;;;;;4594901;19;20015;-73
2023/10/04 06:41:11;;;;;;;5.93;2.72;;;20.90;99.90;;;;;;4595048;19;20003;-73
2023/10/04 06:42:50;;;;;;;6.05;2.45;;;20.90;99.90;;;;;;4594737;19;20324;-73
2023/10/04 06:44:27;;;;;;;7.93;3.50;;;20.90;99.90;;;;;;4593189;19;20078;-72
2023/10/04 06:46:02;;;;;;;8.32;2.95;;;20.90;99.90;;;;;;4593425;19;19994;-73
2023/10/04 06:47:37;;;;;;;6.13;2.60;;;20.90;99.90;;;;;;4594561;19;20002;-73
2023/10/04 06:49:10;;;;;;;5.72;1.95;;;20.90;99.90;;;;;;4593645;19;20003;-73
2023/10/04 06:50:49;;;;;;;5.95;2.38;;;20.90;99.90;;;;;;4593495;19;20002;-73
2023/10/04 06:52:26;;;;;;;6.32;2.17;;;20.90;99.90;;;;;;4593256;19;20007;-73
2023/10/04 06:54:02;;;;;;;8.93;2.53;;;20.90;99.90;;;;;;4594200;19;20005;-68
2023/10/04 06:55:40;;;;;;;6.30;2.72;;;20.90;99.90;;;;;;4591677;19;20018;-74
2023/10/04 06:57:14;;;;;;;5.28;2.70;;;20.90;99.90;;;;;;4593050;19;20212;-73
2023/10/04 06:58:48;;;;;;;6.25;2.00;;;20.90;99.90;;;;;;4594298;19;20007;-72
2023/10/04 07:00:30;;;;;;;7.28;2.47;;;20.90;99.90;;;;;;4594331;19;20003;-72
2023/10/04 07:02:04;;;;;;;5.07;2.22;;;20.90;99.90;;;;;;4594693;19;20029;-72
2023/10/04 07:03:43;;;;;;;7.05;2.90;;;20.80;99.90;;;;;;4594560;19;20442;-72
2023/10/04 07:05:32;;;;;;;4.85;2.50;;;20.90;99.90;;;;;;4594864;19;20047;-88
2023/10/04 07:07:29;;;;;;;5.30;3.67;;;20.80;99.90;;;;;;4595012;19;20159;-85
2023/10/04 07:09:22;;;;;;;5.20;3.80;;;19.50;99.90;;;;;;4594501;19;20453;-88
2023/10/04 07:11:03;;;;;;;5.28;3.58;;;18.30;99.90;;;;;;4594536;19;20007;-88
2023/10/04 07:12:40;;;;;;;6.35;3.72;;;17.80;99.90;;;;;;4595251;19;20104;-89
2023/10/04 07:14:27;;;;;;;;;;;;;;;;;;;;;
2023/10/04 07:16:12;;;;;;;6.68;3.55;;;17.40;99.90;;;;;;4593370;19;20032;-89
2023/10/04 07:18:14;;;;;;;4.75;2.58;;;17.30;99.90;;;;;;4595903;19;20017;-89
2023/10/04 07:20:18;;;;;;;5.65;2.63;;;17.20;99.90;;;;;;4593907;19;20041;-88
2023/10/04 07:21:53;;;;;;;5.50;2.50;;;17.20;99.90;;;;;;4592433;19;20022;-87
2023/10/04 07:23:29;;;;;;;4.55;2.50;;;17.20;99.90;;;;;;4594498;19;20312;-88
2023/10/04 07:25:16;;;;;;;;;;;;;;;;;;;;;
2023/10/04 07:26:58;;;;;;;5.72;2.38;;;17.20;99.90;;;;;;4594946;19;20022;-88
2023/10/04 07:28:41;;;;;;;4.30;2.28;;;17.10;99.90;;;;;;4592886;19;20029;-86
2023/10/04 07:30:19;;;;;;;5.10;2.65;;;17.10;99.90;;;;;;4593115;19;20029;-84
2023/10/04 07:31:53;;;;;;;5.65;2.80;;;17.10;99.90;;;;;;4593432;19;20003;-87
2023/10/04 07:33:32;;;;;;;4.75;2.15;;;17.10;99.90;;;;;;4593690;19;20532;-89
2023/10/04 07:35:16;;;;;;;5.55;2.20;;;17.10;99.90;;;;;;4593099;19;20122;-85
2023/10/04 07:37:01;;;;;;;6.60;3.55;;;17.10;99.90;;;;;;4593722;19;20010;-87
2023/10/04 07:38:57;;;;;;;4.85;2.55;;;17.10;99.90;;;;;;4593211;19;20015;-84
2023/10/04 07:40:33;;;;;;;6.20;3.70;;;17.10;99.90;;;;;;4590791;19;20014;-76
2023/10/04 07:42:07;;;;;;;5.07;3.60;;;17.10;99.90;;;;;;4591278;19;20422;-76
2023/10/04 07:43:42;;;;;;;6.10;3.40;;;17.10;99.90;;;;;;4591007;19;20392;-76
2023/10/04 07:45:18;;;;;;;4.03;2.53;;;17.10;99.90;;;;;;4589929;19;20017;-77
2023/10/04 07:46:51;;;;;;;5.95;3.40;;;17.10;99.90;;;;;;4590933;19;20006;-76
2023/10/04 07:48:26;;;;;;;5.53;3.33;;;17.10;99.90;;;;;;4590623;19;20002;-77
2023/10/04 07:50:01;;;;;;;4.72;2.58;;;17.10;99.90;;;;;;4591049;19;20494;-75
2023/10/04 07:51:35;;;;;;;7.45;4.32;;;17.10;99.90;;;;;;4591048;19;20010;-75
2023/10/04 07:53:10;;;;;;;7.07;4.07;;;17.10;99.90;;;;;;4590903;19;20011;-76
2023/10/04 07:54:45;;;;;;;7.47;4.45;;;17.10;99.90;;;;;;4590266;19;20017;-75
2023/10/04 07:56:21;;;;;;;5.72;4.15;;;17.10;99.90;;;;;;4590657;19;20014;-76
2023/10/04 07:58:02;;;;;;;5.70;3.63;;;17.10;99.90;;;;;;4591217;19;20012;-75
2023/10/04 07:59:41;;;;;;;6.53;3.65;;;17.10;99.90;;;;;;4591266;19;20100;-75
2023/10/04 08:01:18;;;;;;;4.03;2.60;;;17.10;99.90;;;;;;4591130;19;20011;-75
2023/10/04 08:02:51;;;;;;;5.15;2.83;;;17.10;99.90;;;;;;4590704;19;20014;-75
2023/10/04 08:04:26;;;;;;;6.13;3.50;;;17.10;99.90;;;;;;4590415;19;19994;-75
2023/10/04 08:06:01;;;;;;;8.65;4.80;;;17.10;99.90;;;;;;4590723;19;20409;-75
2023/10/04 08:07:37;;;;;;;11.35;6.40;;;17.10;99.90;;;;;;4590999;19;20023;-75
2023/10/04 08:09:14;;;;;;;14.15;7.65;;;17.10;99.90;;;;;;4590371;19;20010;-75
2023/10/04 08:10:49;;;;;;;10.63;6.50;;;17.10;99.90;;;;;;4592827;19;20018;-75
2023/10/04 08:12:23;;;;;;;8.40;4.45;;;17.10;99.90;;;;;;4593401;19;20014;-75
2023/10/04 08:13:58;;;;;;;6.90;4.03;;;17.00;99.90;;;;;;4593695;19;20010;-75
2023/10/04 08:15:33;;;;;;;12.52;7.68;;;17.10;99.90;;;;;;4590401;19;20010;-75
2023/10/04 08:17:06;;;;;;;9.10;5.00;;;17.10;99.90;;;;;;4591710;19;20449;-75
2023/10/04 08:18:41;;;;;;;8.25;4.72;;;17.00;99.90;;;;;;4592450;19;20015;-74
2023/10/04 08:20:16;;;;;;;4.28;2.58;;;17.10;99.90;;;;;;4592689;19;20006;-75
2023/10/04 08:21:49;;;;;;;6.20;3.20;;;17.10;99.90;;;;;;4591271;19;20070;-75
2023/10/04 08:23:26;;;;;;;5.57;2.80;;;17.00;99.90;;;;;;4592616;19;20433;-75
2023/10/04 08:25:00;;;;;;;5.70;2.67;;;17.00;99.90;;;;;;4590700;19;20006;-75
2023/10/04 08:26:34;;;;;;;4.57;2.47;;;17.10;99.90;;;;;;4591777;19;20026;-75
2023/10/04 08:28:10;;;;;;;4.43;2.38;;;17.10;99.90;;;;;;4591506;19;20026;-75
2023/10/04 08:29:43;;;;;;;3.47;1.60;;;17.10;99.90;;;;;;4591455;19;20019;-75
2023/10/04 08:31:18;;;;;;;3.58;2.00;;;17.10;99.90;;;;;;4592470;19;20002;-75
2023/10/04 08:32:56;;;;;;;4.90;2.13;;;17.10;99.90;;;;;;4588834;19;20054;-75
2023/10/04 08:34:30;;;;;;;4.03;2.17;;;17.10;99.90;;;;;;4591868;19;20359;-74
2023/10/04 08:36:10;;;;;;;4.60;2.65;;;17.10;99.90;;;;;;4592732;19;20080;-75
2023/10/04 08:37:53;;;;;;;5.07;2.38;;;17.10;99.90;;;;;;4592468;19;20010;-75
2023/10/04 08:39:27;;;;;;;3.35;1.90;;;17.10;99.90;;;;;;4591205;19;20010;-77
2023/10/04 08:41:02;;;;;;;4.15;1.75;;;17.20;99.90;;;;;;4591235;19;20074;-76
2023/10/04 08:42:38;;;;;;;4.18;2.13;;;17.10;99.90;;;;;;4592036;19;20078;-74
2023/10/04 08:44:13;;;;;;;4.53;2.65;;;17.20;99.90;;;;;;4592168;19;19998;-75